Terminal Aerodrome Forecast
Issued by NWS

Home | Current Version | Previous Version | Text Only | Print | Product List | Glossary On
Versions: 1 2 3 4 5 6 7 8 9 10 11 12 13 14 15 16 17 18
779
FTAK31 PAJN 220711 AAB
TAFAKT
TAF AMD
PAKT 220711Z 2207/2306 16010KT P6SM -RA SCT025 OVC035 WS015/14030KT
      TEMPO 2207/2211 15013KT 3SM -RA BR SCT008 SCT015 OVC025
     FM221500 15009KT 5SM -RA BR SCT015 OVC025 WS015/22020KT
     FM221800 13008KT P6SM -SHRA BKN025 OVC040
     FM230300 14006KT P6SM -SHRA SCT025 OVC060
      AMD LTD TO CLD VIS AND WIND 2207/2215=

USA.gov is the U.S. government's official web portal to all federal, state and local government web resources and services.